Terminal Aerodrome Forecast
Issued by NWS Kansas City/Pleasant Hill, MO

Home | Current Version | Previous Version | Text Only | Print | Product List | Glossary On
Versions: 1 2 3 4 5 6 7 8 9 10 11 12 13 14 15 16 17 18 19 20 21
000
FTUS43 KEAX 251100
TAFMCI
TAF
KMCI 251124Z 2512/2612 21008KT 6SM -SHRA VCTS BKN016CB
     FM251500 19010KT P6SM OVC018
     FM251700 18015G23KT P6SM BKN040
     FM252300 18010KT P6SM SCT040 BKN250
     FM260600 19008KT P6SM BKN080=

USA.gov is the U.S. government's official web portal to all federal, state and local government web resources and services.